createdAt,value
2022-08-18T00:02:15.316Z,98.80
2022-08-18T00:04:48.889Z,100.00
2022-08-18T00:07:21.766Z,100.00
2022-08-18T00:09:51.627Z,100.00
2022-08-18T00:12:22.280Z,100.00
2022-08-18T00:14:50.177Z,100.00
2022-08-18T00:17:18.943Z,100.00
2022-08-18T00:19:48.333Z,100.00
2022-08-18T00:22:20.084Z,100.00
2022-08-18T00:24:51.800Z,100.00
2022-08-18T00:27:23.931Z,100.00
2022-08-18T00:29:57.424Z,100.00
2022-08-18T00:32:26.753Z,100.00
2022-08-18T00:34:55.269Z,100.00
2022-08-18T00:37:23.852Z,100.00
2022-08-18T00:39:54.059Z,100.00
2022-08-18T00:42:27.400Z,100.00
2022-08-18T00:45:01.278Z,100.00
2022-08-18T00:47:33.123Z,100.00
2022-08-18T00:50:14.818Z,100.00
2022-08-18T00:52:45.293Z,100.00
2022-08-18T00:55:14.339Z,100.00
2022-08-18T00:57:42.794Z,100.00
2022-08-18T01:00:13.581Z,100.00
2022-08-18T01:02:43.200Z,100.00
2022-08-18T01:05:15.584Z,100.00
2022-08-18T01:07:45.722Z,100.00
2022-08-18T01:10:17.033Z,100.00
2022-08-18T01:12:46.925Z,100.00
2022-08-18T01:15:28.704Z,100.00
2022-08-18T01:18:17.340Z,100.00
2022-08-18T01:21:04.811Z,100.00
2022-08-18T01:23:33.817Z,100.00
2022-08-18T01:26:00.585Z,100.00
2022-08-18T01:28:28.370Z,100.00
2022-08-18T01:30:58.376Z,100.00
2022-08-18T01:33:30.148Z,100.00
2022-08-18T01:35:58.580Z,100.00
2022-08-18T01:38:27.228Z,100.00
2022-08-18T01:41:25.077Z,100.00
2022-08-18T01:43:43.911Z,100.00
2022-08-18T01:46:11.614Z,100.00
2022-08-18T01:48:40.035Z,100.00
2022-08-18T01:51:09.787Z,100.00
2022-08-18T01:53:38.024Z,100.00
2022-08-18T01:56:07.888Z,100.00
2022-08-18T01:58:36.324Z,100.00
2022-08-18T02:01:05.493Z,100.00
2022-08-18T02:03:36.783Z,100.00
2022-08-18T02:06:07.212Z,100.00
2022-08-18T02:08:35.792Z,100.00
2022-08-18T02:11:04.434Z,100.00
2022-08-18T02:13:33.958Z,100.00
2022-08-18T02:16:02.312Z,100.00
2022-08-18T02:18:47.438Z,100.00
2022-08-18T02:21:18.995Z,100.00
2022-08-18T02:23:52.844Z,100.00
2022-08-18T02:26:22.088Z,100.00
2022-08-18T02:28:51.148Z,100.00
2022-08-18T02:31:21.005Z,100.00
2022-08-18T02:33:52.383Z,100.00
2022-08-18T02:36:21.101Z,100.00
2022-08-18T02:38:56.656Z,100.00
2022-08-18T02:41:29.320Z,100.00
2022-08-18T02:43:59.949Z,100.00
2022-08-18T02:46:30.085Z,100.00
2022-08-18T02:48:58.925Z,100.00
2022-08-18T02:51:26.681Z,100.00
2022-08-18T02:53:54.517Z,100.00
2022-08-18T02:56:40.784Z,100.00
2022-08-18T02:59:13.604Z,100.00
2022-08-18T03:01:42.941Z,100.00
2022-08-18T03:04:13.905Z,100.00
2022-08-18T03:06:41.587Z,100.00
2022-08-18T03:09:11.097Z,100.00
2022-08-18T03:11:39.031Z,100.00
2022-08-18T03:14:11.454Z,100.00
2022-08-18T03:16:48.801Z,100.00
2022-08-18T03:19:23.263Z,100.00
2022-08-18T03:21:51.220Z,100.00
2022-08-18T03:24:22.279Z,100.00
2022-08-18T03:26:50.945Z,100.00
2022-08-18T03:29:18.656Z,100.00
2022-08-18T03:31:48.825Z,100.00
2022-08-18T03:34:19.728Z,100.00
2022-08-18T03:36:48.075Z,100.00
2022-08-18T03:39:15.822Z,100.00
2022-08-18T03:41:58.085Z,100.00
2022-08-18T03:44:30.399Z,100.00
2022-08-18T03:47:00.194Z,100.00
2022-08-18T03:49:27.960Z,100.00
2022-08-18T03:51:55.985Z,100.00
2022-08-18T03:54:23.991Z,100.00
2022-08-18T03:56:51.610Z,100.00
2022-08-18T03:59:22.160Z,100.00
2022-08-18T04:01:51.216Z,100.00
2022-08-18T04:04:22.432Z,100.00
2022-08-18T04:06:51.479Z,100.00
2022-08-18T04:09:19.901Z,100.00
2022-08-18T04:11:47.873Z,100.00
2022-08-18T04:14:18.882Z,100.00
2022-08-18T04:16:49.015Z,100.00
2022-08-18T04:19:26.531Z,100.00
2022-08-18T04:21:58.513Z,100.00
2022-08-18T04:24:28.133Z,100.00
2022-08-18T04:27:00.923Z,100.00
2022-08-18T04:29:29.379Z,100.00
2022-08-18T04:31:57.378Z,100.00
2022-08-18T04:34:25.081Z,100.00
2022-08-18T04:36:54.528Z,100.00
2022-08-18T04:39:24.086Z,100.00
2022-08-18T04:41:52.313Z,100.00
2022-08-18T04:44:21.584Z,100.00
2022-08-18T04:46:51.763Z,100.00
2022-08-18T04:49:20.596Z,100.00
2022-08-18T04:52:34.024Z,100.00
2022-08-18T04:54:58.151Z,100.00
2022-08-18T04:57:26.238Z,100.00
2022-08-18T04:59:54.311Z,100.00
2022-08-18T05:02:22.816Z,100.00
2022-08-18T05:04:52.223Z,100.00
2022-08-18T05:07:22.545Z,100.00
2022-08-18T05:09:50.332Z,100.00
2022-08-18T05:12:19.364Z,100.00
2022-08-18T05:14:51.970Z,100.00
2022-08-18T05:17:19.645Z,100.00
2022-08-18T05:19:47.603Z,100.00
2022-08-18T05:22:22.353Z,100.00
2022-08-18T05:24:56.135Z,100.00
2022-08-18T05:27:25.134Z,100.00
2022-08-18T05:29:52.749Z,100.00
2022-08-18T05:32:42.500Z,100.00
2022-08-18T05:35:12.160Z,100.00
2022-08-18T05:37:47.406Z,100.00
2022-08-18T05:40:16.096Z,100.00
2022-08-18T05:42:45.285Z,100.00
2022-08-18T05:45:18.425Z,100.00
2022-08-18T05:47:46.334Z,100.00
2022-08-18T05:50:17.255Z,100.00
2022-08-18T05:52:50.315Z,100.00
2022-08-18T05:55:42.697Z,100.00
2022-08-18T05:58:16.138Z,100.00
2022-08-18T06:00:45.380Z,100.00
2022-08-18T06:03:17.082Z,100.00
2022-08-18T06:05:50.119Z,100.00
2022-08-18T06:08:18.554Z,100.00
2022-08-18T06:10:48.964Z,100.00
2022-08-18T06:13:20.075Z,100.00
2022-08-18T06:15:54.101Z,100.00
2022-08-18T06:18:32.357Z,100.00
2022-08-18T06:21:12.593Z,100.00
2022-08-18T06:23:44.341Z,100.00
2022-08-18T06:26:16.730Z,100.00
2022-08-18T06:28:55.628Z,100.00
2022-08-18T06:31:29.985Z,100.00
2022-08-18T06:34:04.641Z,100.00
2022-08-18T06:36:39.117Z,100.00
2022-08-18T06:39:13.528Z,100.00
2022-08-18T06:41:45.200Z,100.00
2022-08-18T06:44:18.423Z,100.00
2022-08-18T06:46:48.563Z,100.00
2022-08-18T06:49:25.859Z,100.00
2022-08-18T06:51:54.080Z,100.00
2022-08-18T06:54:29.400Z,100.00
2022-08-18T06:56:58.681Z,100.00
2022-08-18T06:59:30.150Z,100.00
2022-08-18T07:02:03.649Z,100.00
2022-08-18T07:04:34.381Z,100.00
2022-08-18T07:07:13.928Z,100.00
2022-08-18T07:09:41.755Z,100.00
2022-08-18T07:12:20.454Z,100.00
2022-08-18T07:14:51.758Z,100.00
2022-08-18T07:17:42.754Z,100.00
2022-08-18T07:20:20.234Z,100.00
2022-08-18T07:22:57.331Z,100.00
2022-08-18T07:25:31.951Z,100.00
2022-08-18T07:28:01.927Z,100.00
2022-08-18T07:30:35.966Z,100.00
2022-08-18T07:33:12.602Z,100.00
2022-08-18T07:35:44.840Z,99.02
2022-08-18T07:38:42.171Z,99.32
2022-08-18T07:41:08.933Z,100.00
2022-08-18T07:43:41.553Z,100.00
2022-08-18T07:46:15.543Z,100.00
2022-08-18T07:48:43.277Z,100.00
2022-08-18T07:51:27.032Z,100.00
2022-08-18T07:54:20.084Z,100.00
2022-08-18T07:57:01.616Z,97.24
2022-08-18T07:59:34.336Z,99.14
2022-08-18T08:02:14.457Z,100.00
2022-08-18T08:04:49.199Z,100.00
2022-08-18T08:07:26.023Z,96.62
2022-08-18T08:10:02.892Z,94.67
2022-08-18T08:12:37.092Z,92.64
2022-08-18T08:15:13.229Z,89.94
2022-08-18T08:17:47.562Z,89.97
2022-08-18T08:20:22.219Z,88.41
2022-08-18T08:23:03.724Z,89.30
2022-08-18T08:25:46.687Z,93.69
2022-08-18T08:28:23.259Z,87.12
2022-08-18T08:31:09.066Z,92.68
2022-08-18T08:33:49.279Z,90.12
2022-08-18T08:36:18.313Z,90.63
2022-08-18T08:38:47.714Z,90.24
2022-08-18T08:41:21.323Z,89.96
2022-08-18T08:43:53.754Z,91.38
2022-08-18T08:46:23.945Z,90.78
2022-08-18T08:48:57.892Z,88.31
2022-08-18T08:51:32.949Z,87.35
2022-08-18T08:54:05.419Z,87.01
2022-08-18T08:56:37.098Z,87.20
2022-08-18T08:59:08.721Z,85.99
2022-08-18T09:01:45.288Z,88.15
2022-08-18T09:04:23.275Z,89.35
2022-08-18T09:06:55.807Z,87.16
2022-08-18T09:09:37.685Z,90.32
2022-08-18T09:12:12.495Z,84.41
2022-08-18T09:14:58.368Z,84.83
2022-08-18T09:17:42.473Z,84.00
2022-08-18T09:20:23.230Z,82.22
2022-08-18T09:22:53.958Z,78.15
2022-08-18T09:25:34.502Z,74.70
2022-08-18T09:28:12.283Z,77.98
2022-08-18T09:30:47.476Z,75.53
2022-08-18T09:33:22.911Z,74.31
2022-08-18T09:36:21.389Z,75.71
2022-08-18T09:39:14.778Z,75.47
2022-08-18T09:41:50.468Z,77.05
2022-08-18T09:44:47.933Z,73.91
2022-08-18T09:47:58.025Z,71.15
2022-08-18T09:50:53.862Z,73.68
2022-08-18T09:53:52.262Z,72.17
2022-08-18T09:56:58.347Z,70.65
2022-08-18T09:59:55.799Z,71.34
2022-08-18T10:03:10.312Z,72.89
2022-08-18T10:05:38.635Z,73.74
2022-08-18T10:08:30.344Z,72.34
2022-08-18T10:11:09.417Z,70.54
2022-08-18T10:13:49.397Z,71.45
2022-08-18T10:16:24.625Z,68.16
2022-08-18T10:19:02.859Z,71.35
2022-08-18T10:22:05.022Z,67.09
2022-08-18T10:24:38.010Z,67.56
2022-08-18T10:27:10.850Z,66.31
2022-08-18T10:29:48.161Z,65.33
2022-08-18T10:32:38.973Z,65.36
2022-08-18T10:35:07.994Z,63.34
2022-08-18T10:37:38.863Z,61.47
2022-08-18T10:40:16.169Z,59.25
2022-08-18T10:42:53.478Z,64.11
2022-08-18T10:45:25.372Z,63.83
2022-08-18T10:48:20.103Z,59.48
2022-08-18T10:50:55.182Z,60.76
2022-08-18T10:53:39.051Z,61.23
2022-08-18T10:56:12.218Z,60.28
2022-08-18T10:58:48.060Z,58.26
2022-08-18T11:01:22.597Z,59.70
2022-08-18T11:04:02.408Z,60.01
2022-08-18T11:06:45.765Z,57.89
2022-08-18T11:09:13.560Z,58.17
2022-08-18T11:11:52.738Z,56.41
2022-08-18T11:14:41.923Z,57.77
2022-08-18T11:20:04.220Z,60.62
2022-08-18T11:22:35.642Z,60.85
2022-08-18T11:25:06.192Z,58.41
2022-08-18T11:27:48.519Z,60.51
2022-08-18T11:30:18.647Z,60.67
2022-08-18T11:32:55.163Z,64.03
2022-08-18T11:35:27.802Z,65.03
2022-08-18T11:37:57.765Z,61.78
2022-08-18T11:43:29.949Z,58.15
2022-08-18T11:46:16.889Z,57.36
2022-08-18T11:48:51.948Z,58.12
2022-08-18T11:51:25.358Z,56.39
2022-08-18T11:53:58.691Z,59.56
2022-08-18T11:59:52.339Z,55.25
2022-08-18T12:02:22.471Z,58.17
2022-08-18T12:04:53.575Z,57.79
2022-08-18T12:07:29.135Z,57.48
2022-08-18T12:10:16.375Z,59.56
2022-08-18T12:12:48.010Z,56.46
2022-08-18T12:15:29.624Z,55.12
2022-08-18T12:18:25.990Z,54.60
2022-08-18T12:20:57.633Z,54.45
2022-08-18T12:23:25.606Z,54.74
2022-08-18T12:25:53.291Z,56.10
2022-08-18T12:28:22.298Z,56.94
2022-08-18T12:30:56.095Z,53.65
2022-08-18T12:33:34.518Z,55.11
2022-08-18T12:36:15.836Z,56.14
2022-08-18T12:38:51.863Z,54.64
2022-08-18T12:41:24.112Z,53.57
2022-08-18T12:43:58.366Z,53.47
2022-08-18T12:46:27.670Z,53.73
2022-08-18T12:48:56.772Z,54.27
2022-08-18T12:51:24.982Z,54.06
2022-08-18T12:56:48.262Z,54.30
2022-08-18T12:59:17.396Z,53.92
2022-08-18T13:01:45.587Z,53.36
2022-08-18T13:04:15.620Z,55.15
2022-08-18T13:06:59.222Z,56.52
2022-08-18T13:09:35.306Z,57.70
2022-08-18T13:12:19.584Z,55.41
2022-08-18T13:14:47.730Z,54.00
2022-08-18T13:17:32.420Z,56.11
2022-08-18T13:20:05.676Z,55.30
2022-08-18T13:22:33.591Z,56.20
2022-08-18T13:25:01.980Z,58.66
2022-08-18T13:27:35.216Z,56.43
2022-08-18T13:30:03.621Z,57.46
2022-08-18T13:33:00.695Z,58.95
2022-08-18T13:35:38.300Z,59.01
2022-08-18T13:38:19.073Z,59.17
2022-08-18T13:40:50.030Z,60.20
2022-08-18T13:43:20.041Z,60.52
2022-08-18T13:45:53.391Z,60.84
2022-08-18T13:48:24.204Z,60.37
2022-08-18T13:50:55.667Z,61.21
2022-08-18T13:53:24.701Z,60.45
2022-08-18T13:55:54.553Z,59.70
2022-08-18T13:58:22.307Z,60.27
2022-08-18T14:00:52.225Z,61.10
2022-08-18T14:03:42.126Z,61.25
2022-08-18T14:06:10.386Z,60.48
2022-08-18T14:08:41.237Z,60.27
2022-08-18T14:11:09.577Z,59.54
2022-08-18T14:13:38.119Z,59.39
2022-08-18T14:16:18.887Z,60.06
2022-08-18T14:19:09.743Z,60.73
2022-08-18T14:21:56.726Z,61.83
2022-08-18T14:24:42.961Z,62.33
2022-08-18T14:27:17.280Z,62.28
2022-08-18T14:29:48.021Z,62.94
2022-08-18T14:32:18.270Z,63.31
2022-08-18T14:35:00.791Z,63.00
2022-08-18T14:37:42.798Z,62.93
2022-08-18T14:40:12.473Z,62.98
2022-08-18T14:42:54.246Z,62.94
2022-08-18T14:45:31.672Z,63.54
2022-08-18T14:48:07.191Z,64.12
2022-08-18T14:50:39.049Z,64.08
2022-08-18T14:53:08.278Z,63.80
2022-08-18T14:55:36.048Z,64.71
2022-08-18T14:58:04.255Z,64.99
2022-08-18T15:00:35.542Z,65.11
2022-08-18T15:03:21.723Z,66.15
2022-08-18T15:05:56.130Z,65.13
2022-08-18T15:08:25.527Z,65.13
2022-08-18T15:10:55.142Z,65.75
2022-08-18T15:13:24.981Z,65.48
2022-08-18T15:15:55.865Z,66.03
2022-08-18T15:18:29.753Z,66.45
2022-08-18T15:21:19.652Z,65.99
2022-08-18T15:24:22.480Z,65.54
2022-08-18T15:26:57.603Z,66.41
2022-08-18T15:29:29.016Z,66.58
2022-08-18T15:32:02.220Z,66.46
2022-08-18T15:34:46.357Z,67.07
2022-08-18T15:37:15.990Z,67.82
2022-08-18T15:39:51.841Z,69.65
2022-08-18T15:42:24.156Z,71.00
2022-08-18T15:44:53.593Z,71.29
2022-08-18T15:47:21.872Z,71.56
2022-08-18T15:49:49.552Z,75.21
2022-08-18T15:52:19.881Z,75.33
2022-08-18T15:54:50.516Z,75.62
2022-08-18T15:57:39.116Z,76.51
2022-08-18T16:00:07.830Z,75.39
2022-08-18T16:02:40.781Z,77.05
2022-08-18T16:05:14.007Z,77.40
2022-08-18T16:07:53.558Z,78.16
2022-08-18T16:10:24.460Z,78.39
2022-08-18T16:12:52.493Z,80.45
2022-08-18T16:15:22.279Z,79.39
2022-08-18T16:17:50.931Z,79.54
2022-08-18T16:20:19.567Z,81.04
2022-08-18T16:22:47.654Z,81.84
2022-08-18T16:25:16.447Z,80.34
2022-08-18T16:27:47.758Z,81.85
2022-08-18T16:30:18.595Z,82.82
2022-08-18T16:32:47.288Z,81.91
2022-08-18T16:35:16.037Z,83.27
2022-08-18T16:37:44.269Z,83.01
2022-08-18T16:40:13.279Z,85.54
2022-08-18T16:42:41.435Z,84.67
2022-08-18T16:45:11.605Z,84.97
2022-08-18T16:47:41.751Z,85.44
2022-08-18T16:50:11.768Z,81.43
2022-08-18T16:52:39.461Z,83.05
2022-08-18T16:55:09.037Z,85.48
2022-08-18T16:57:56.894Z,90.73
2022-08-18T17:00:44.519Z,95.67
2022-08-18T17:03:30.145Z,99.25
2022-08-18T17:06:02.097Z,100.00
2022-08-18T17:08:33.442Z,100.00
2022-08-18T17:11:01.707Z,100.00
2022-08-18T17:13:30.296Z,96.00
2022-08-18T17:15:59.290Z,97.83
2022-08-18T17:18:27.592Z,100.00
2022-08-18T17:20:55.361Z,99.70
2022-08-18T17:23:23.315Z,100.00
2022-08-18T17:25:51.357Z,100.00
2022-08-18T17:28:21.686Z,100.00
2022-08-18T17:30:53.866Z,100.00
2022-08-18T17:33:26.755Z,100.00
2022-08-18T17:35:54.874Z,100.00
2022-08-18T17:38:26.957Z,100.00
2022-08-18T17:40:55.039Z,100.00
2022-08-18T17:43:25.872Z,100.00
2022-08-18T17:45:55.681Z,100.00
2022-08-18T17:48:29.059Z,100.00
2022-08-18T17:51:18.291Z,100.00
2022-08-18T17:53:46.756Z,100.00
2022-08-18T17:56:17.596Z,100.00
2022-08-18T17:58:51.066Z,100.00
2022-08-18T18:01:19.041Z,100.00
2022-08-18T18:03:48.403Z,100.00
2022-08-18T18:06:23.936Z,100.00
2022-08-18T18:08:55.915Z,100.00
2022-08-18T18:11:31.142Z,100.00
2022-08-18T18:14:00.034Z,100.00
2022-08-18T18:16:34.889Z,100.00
2022-08-18T18:19:06.306Z,100.00
2022-08-18T18:22:00.753Z,100.00
2022-08-18T18:24:31.019Z,100.00
2022-08-18T18:26:58.689Z,100.00
2022-08-18T18:29:32.333Z,100.00
2022-08-18T18:32:05.189Z,100.00
2022-08-18T18:34:39.585Z,100.00
2022-08-18T18:37:25.017Z,100.00
2022-08-18T18:39:57.526Z,100.00
2022-08-18T18:42:27.345Z,100.00
2022-08-18T18:44:57.112Z,100.00
2022-08-18T18:47:40.045Z,100.00
2022-08-18T18:50:12.681Z,100.00
2022-08-18T18:52:45.173Z,100.00
2022-08-18T18:55:17.033Z,100.00
2022-08-18T18:57:53.130Z,100.00
2022-08-18T19:00:25.676Z,100.00
2022-08-18T19:02:58.059Z,100.00
2022-08-18T19:05:35.078Z,100.00
2022-08-18T19:08:16.635Z,100.00
2022-08-18T19:10:48.037Z,100.00
2022-08-18T19:13:24.953Z,100.00
2022-08-18T19:16:05.330Z,100.00
2022-08-18T19:18:36.168Z,100.00
2022-08-18T19:22:02.007Z,100.00
2022-08-18T19:24:03.219Z,100.00
2022-08-18T19:26:35.124Z,100.00
2022-08-18T19:29:13.624Z,100.00
2022-08-18T19:31:45.985Z,100.00
2022-08-18T19:34:19.910Z,100.00
2022-08-18T19:36:55.450Z,100.00
2022-08-18T19:39:28.569Z,100.00
2022-08-18T19:42:00.933Z,100.00
2022-08-18T19:44:33.668Z,100.00
2022-08-18T19:47:08.497Z,100.00
2022-08-18T19:49:41.541Z,100.00
2022-08-18T19:52:45.297Z,100.00
2022-08-18T19:55:27.396Z,100.00
2022-08-18T19:58:19.889Z,100.00
2022-08-18T20:00:48.801Z,100.00
2022-08-18T20:03:48.617Z,100.00
2022-08-18T20:06:34.415Z,100.00
2022-08-18T20:09:35.701Z,100.00
2022-08-18T20:12:14.149Z,100.00
2022-08-18T20:14:43.007Z,100.00
2022-08-18T20:17:18.304Z,100.00
2022-08-18T20:19:49.755Z,100.00
2022-08-18T20:22:35.878Z,100.00
2022-08-18T20:25:14.319Z,100.00
2022-08-18T20:27:43.173Z,100.00
2022-08-18T20:30:33.147Z,100.00
2022-08-18T20:33:13.243Z,100.00
2022-08-18T20:35:46.921Z,100.00
2022-08-18T20:38:21.499Z,100.00
2022-08-18T20:40:54.144Z,100.00
2022-08-18T20:43:28.316Z,100.00
2022-08-18T20:46:06.981Z,100.00
2022-08-18T20:48:45.649Z,100.00
2022-08-18T20:51:15.333Z,100.00
2022-08-18T20:54:02.917Z,100.00
2022-08-18T20:56:43.781Z,100.00
2022-08-18T20:59:18.303Z,100.00
2022-08-18T21:01:57.803Z,100.00
2022-08-18T21:04:41.225Z,100.00
2022-08-18T21:07:17.916Z,100.00
2022-08-18T21:09:51.101Z,100.00
2022-08-18T21:12:24.400Z,100.00
2022-08-18T21:14:54.263Z,100.00
2022-08-18T21:17:22.192Z,100.00
2022-08-18T21:19:50.253Z,100.00
2022-08-18T21:22:19.644Z,100.00
2022-08-18T21:24:49.942Z,100.00
2022-08-18T21:27:24.544Z,100.00
2022-08-18T21:29:52.425Z,100.00
2022-08-18T21:32:22.972Z,100.00
2022-08-18T21:34:50.996Z,100.00
2022-08-18T21:37:20.046Z,100.00
2022-08-18T21:39:53.465Z,100.00
2022-08-18T21:42:27.558Z,100.00
2022-08-18T21:44:56.589Z,100.00
2022-08-18T21:47:30.908Z,100.00
2022-08-18T21:50:09.268Z,100.00
2022-08-18T21:52:39.950Z,100.00
2022-08-18T21:55:20.673Z,100.00
2022-08-18T21:57:52.845Z,100.00
2022-08-18T22:00:24.352Z,100.00
2022-08-18T22:02:53.186Z,100.00
2022-08-18T22:05:30.237Z,100.00
2022-08-18T22:08:20.023Z,100.00
2022-08-18T22:12:00.773Z,100.00
2022-08-18T22:14:36.193Z,100.00
2022-08-18T22:17:26.349Z,100.00
2022-08-18T22:19:54.389Z,100.00
2022-08-18T22:22:40.854Z,100.00
2022-08-18T22:25:09.373Z,100.00
2022-08-18T22:27:37.065Z,100.00
2022-08-18T22:30:06.984Z,100.00
2022-08-18T22:32:37.869Z,100.00
2022-08-18T22:35:07.025Z,100.00
2022-08-18T22:37:40.962Z,100.00
2022-08-18T22:40:11.557Z,100.00
2022-08-18T22:42:39.671Z,100.00
2022-08-18T22:45:13.554Z,100.00
2022-08-18T22:47:43.307Z,100.00
2022-08-18T22:50:13.759Z,100.00
2022-08-18T22:52:44.766Z,100.00
2022-08-18T22:55:17.767Z,100.00
2022-08-18T22:57:49.797Z,100.00
2022-08-18T23:00:21.138Z,100.00
2022-08-18T23:02:50.647Z,100.00
2022-08-18T23:05:18.546Z,100.00
2022-08-18T23:07:46.628Z,100.00
2022-08-18T23:10:16.449Z,100.00
2022-08-18T23:12:44.553Z,100.00
2022-08-18T23:15:12.317Z,100.00
2022-08-18T23:17:42.043Z,100.00
2022-08-18T23:20:12.440Z,100.00
2022-08-18T23:22:46.143Z,100.00
2022-08-18T23:25:14.322Z,100.00
2022-08-18T23:27:42.489Z,100.00
2022-08-18T23:30:10.934Z,100.00
2022-08-18T23:32:40.766Z,100.00
2022-08-18T23:35:10.401Z,100.00
2022-08-18T23:37:38.532Z,100.00
2022-08-18T23:40:07.791Z,100.00
2022-08-18T23:42:35.499Z,100.00
2022-08-18T23:45:04.736Z,100.00
2022-08-18T23:47:32.457Z,100.00
2022-08-18T23:50:00.278Z,100.00
2022-08-18T23:52:29.336Z,100.00
2022-08-18T23:54:57.339Z,100.00
2022-08-18T23:57:25.014Z,100.00
2022-08-18T23:59:52.697Z,100.00
